Time;durP1;ratioP1;P1;durP2;ratioP2;P2;SDS_P1;SDS_P2;PMS_P1;PMS_P2;Temp;Humidity;BMP_temperature;BMP_pressure;BME280_temperature;BME280_humidity;BME280_pressure;Samples;Min_cycle;Max_cycle;Signal;HPM_P1;HPM_P2
2021/04/04 00:01:13;;;;;;;15.98;2.97;;;;;;;9.23;44.41;100808.09;5075474;28;20048;-82
2021/04/04 00:03:40;;;;;;;13.45;2.67;;;;;;;9.23;44.34;100800.22;5075075;28;20056;-82
2021/04/04 00:06:06;;;;;;;14.63;2.70;;;;;;;9.24;44.28;100803.72;5075345;28;20044;-82
2021/04/04 00:08:32;;;;;;;13.98;2.30;;;;;;;9.25;44.33;100802.78;5075582;28;20051;-82
2021/04/04 00:10:58;;;;;;;15.45;3.17;;;;;;;9.23;44.17;100802.84;5075355;28;20048;-82
2021/04/04 00:13:25;;;;;;;13.23;2.50;;;;;;;9.23;44.36;100801.97;5075629;28;20056;-82
2021/04/04 00:15:51;;;;;;;17.70;3.13;;;;;;;9.21;44.41;100794.19;5074855;28;20056;-83
2021/04/04 00:18:17;;;;;;;11.52;2.33;;;;;;;9.20;44.34;100804.72;5074621;28;20048;-82
2021/04/04 00:20:43;;;;;;;12.18;2.67;;;;;;;9.19;44.07;100800.41;5074773;28;20048;-83
2021/04/04 00:23:10;;;;;;;12.77;2.92;;;;;;;9.17;43.93;100799.56;5073758;28;20413;-83
2021/04/04 00:25:36;;;;;;;12.93;2.72;;;;;;;9.16;44.40;100803.97;5074347;28;20049;-83
2021/04/04 00:28:03;;;;;;;15.25;2.83;;;;;;;9.14;44.22;100800.53;5074770;28;20051;-83
2021/04/04 00:30:29;;;;;;;15.95;2.90;;;;;;;9.12;44.25;100805.84;5074717;28;20048;-83
2021/04/04 00:32:55;;;;;;;15.60;2.33;;;;;;;9.12;44.26;100789.22;5074683;28;20110;-83
2021/04/04 00:35:22;;;;;;;13.15;2.50;;;;;;;9.12;44.27;100794.47;5074196;28;20052;-83
2021/04/04 00:37:51;;;;;;;21.58;2.70;;;;;;;9.09;44.36;100800.69;5074370;28;20424;-83
2021/04/04 00:40:18;;;;;;;11.00;2.30;;;;;;;9.09;44.38;100797.22;5074306;28;20052;-83
2021/04/04 00:42:45;;;;;;;14.15;2.60;;;;;;;9.09;44.37;100791.97;5074644;28;20044;-82
2021/04/04 00:45:16;;;;;;;16.17;2.83;;;;;;;9.07;44.36;100793.78;5073935;28;20451;-82
2021/04/04 00:47:42;;;;;;;10.38;2.78;;;;;;;9.08;44.13;100787.63;5074370;28;20413;-83
2021/04/04 00:50:10;;;;;;;9.43;2.22;;;;;;;9.08;44.17;100785.00;5074270;28;20052;-83
2021/04/04 00:52:37;;;;;;;14.93;3.17;;;;;;;9.08;44.31;100787.63;5074680;28;20131;-82
2021/04/04 00:55:06;;;;;;;12.32;2.30;;;;;;;9.07;44.17;100785.88;5073717;28;20413;-82
2021/04/04 00:57:33;;;;;;;16.55;2.92;;;;;;;9.08;44.48;100795.50;5072971;28;20072;-83
2021/04/04 01:00:04;;;;;;;12.20;3.17;;;;;;;9.08;44.28;100790.25;5073813;28;20052;-83
2021/04/04 01:02:30;;;;;;;11.50;2.13;;;;;;;9.08;43.83;100796.34;5074133;28;20052;-82
2021/04/04 01:05:00;;;;;;;14.90;2.85;;;;;;;9.08;43.86;100798.13;5073671;28;20075;-82
2021/04/04 01:07:27;;;;;;;14.63;2.55;;;;;;;9.07;44.12;100793.78;5073990;28;20048;-83
2021/04/04 01:09:54;;;;;;;9.15;2.13;;;;;;;9.05;44.16;100795.59;5073992;28;20053;-82
2021/04/04 01:13:01;;;;;;;10.77;2.45;;;;;;;8.98;44.31;100795.78;5072753;28;20044;-83
2021/04/04 01:15:36;;;;;;;12.57;2.60;;;;;;;9.00;44.36;100795.75;5073546;28;20545;-83
2021/04/04 01:18:10;;;;;;;10.57;2.42;;;;;;;8.98;44.51;100787.91;5073824;28;20044;-83
2021/04/04 01:20:48;;;;;;;14.95;2.45;;;;;;;8.93;44.71;100792.47;5073874;28;20048;-82
2021/04/04 01:23:21;;;;;;;11.63;2.50;;;;;;;8.94;44.51;100783.69;5073979;28;20055;-83
2021/04/04 01:26:08;;;;;;;16.02;2.50;;;;;;;8.91;44.64;100799.56;5072518;28;20052;-82
2021/04/04 01:28:40;;;;;;;13.57;3.08;;;;;;;8.91;44.82;100796.94;5073893;28;20048;-82
2021/04/04 01:31:08;;;;;;;;;;;;;;;8.92;44.19;100795.13;5074167;28;20053;-83
2021/04/04 01:33:36;;;;;;;8.27;2.15;;;;;;;8.94;43.79;100785.47;5073074;28;19974;-82
2021/04/04 01:36:05;;;;;;;11.70;2.88;;;;;;;8.88;44.40;100794.41;5073624;28;20056;-83
2021/04/04 01:38:37;;;;;;;13.30;3.08;;;;;;;8.86;44.54;100794.44;5073660;28;20044;-83
2021/04/04 01:41:28;;;;;;;16.98;2.25;;;;;;;8.84;44.75;100793.66;5073643;28;20055;-83
2021/04/04 01:44:02;;;;;;;15.48;2.75;;;;;;;8.83;44.96;100788.44;5073069;28;20044;-83
2021/04/04 01:46:29;;;;;;;14.50;3.58;;;;;;;8.84;44.47;100790.16;5073527;28;20063;-83
2021/04/04 01:48:56;;;;;;;11.15;2.25;;;;;;;8.82;44.43;100786.72;5072299;28;20389;-83
2021/04/04 01:51:24;;;;;;;17.30;2.53;;;;;;;8.81;44.58;100779.75;5074090;28;20053;-83
2021/04/04 01:53:51;;;;;;;13.13;2.80;;;;;;;8.80;44.47;100788.53;5073070;28;20051;-82
2021/04/04 01:56:18;;;;;;;12.25;2.75;;;;;;;8.77;44.52;100779.00;5073204;28;20052;-83
2021/04/04 01:58:45;;;;;;;19.25;3.13;;;;;;;8.77;44.75;100780.75;5073299;28;20048;-83
2021/04/04 02:01:13;;;;;;;11.57;2.22;;;;;;;8.73;44.88;100775.63;5073427;28;20052;-83
2021/04/04 02:03:41;;;;;;;11.07;2.47;;;;;;;8.71;45.00;100777.44;5073382;28;20122;-83
2021/04/04 02:06:10;;;;;;;18.45;3.22;;;;;;;8.70;44.85;100778.34;5073581;28;20052;-83
2021/04/04 02:08:39;;;;;;;11.82;2.45;;;;;;;8.70;44.72;100775.72;5073092;28;20044;-83
2021/04/04 02:11:05;;;;;;;12.45;2.65;;;;;;;8.70;44.85;100778.34;5073453;28;20045;-83
2021/04/04 02:13:33;;;;;;;14.63;2.72;;;;;;;8.70;45.06;100773.09;5071884;28;20048;-82
2021/04/04 02:16:02;;;;;;;16.35;3.10;;;;;;;8.71;45.26;100776.59;5070977;28;20072;-83
2021/04/04 02:18:28;;;;;;;12.18;2.20;;;;;;;8.71;45.17;100764.31;5073240;28;20051;-83
2021/04/04 02:20:59;;;;;;;9.98;2.22;;;;;;;8.72;44.95;100763.38;5073209;28;20123;-83
2021/04/04 02:23:27;;;;;;;9.85;2.72;;;;;;;8.71;45.07;100766.09;5072973;28;20053;-83
2021/04/04 02:25:56;;;;;;;11.07;2.40;;;;;;;8.71;45.02;100766.09;5073061;28;20420;-83
2021/04/04 02:28:23;;;;;;;14.00;2.47;;;;;;;8.73;45.13;100765.13;5073492;28;20067;-83
2021/04/04 02:30:52;;;;;;;9.63;2.50;;;;;;;8.75;44.93;100756.34;5073014;28;20049;-83
2021/04/04 02:33:25;;;;;;;13.32;2.55;;;;;;;8.74;45.63;100758.09;5073119;28;20057;-83
2021/04/04 02:35:58;;;;;;;18.75;2.17;;;;;;;8.76;45.16;100758.03;5073204;28;20091;-83
2021/04/04 02:38:34;;;;;;;12.27;2.13;;;;;;;8.76;45.52;100756.28;5073137;28;20052;-83
2021/04/04 02:41:05;;;;;;;13.27;2.15;;;;;;;8.80;45.44;100750.03;5073052;28;20055;-83
2021/04/04 02:43:33;;;;;;;14.40;2.67;;;;;;;8.82;45.17;100747.34;5074160;28;20105;-83
2021/04/04 02:46:02;;;;;;;9.88;2.33;;;;;;;8.81;45.44;100741.22;5076957;28;20048;-83
2021/04/04 02:48:33;;;;;;;11.23;2.70;;;;;;;8.82;45.31;100742.09;5076459;28;20049;-83
2021/04/04 02:51:04;;;;;;;13.65;2.35;;;;;;;8.82;45.44;100737.69;5076423;28;20059;-83
2021/04/04 02:53:33;;;;;;;8.40;2.22;;;;;;;8.84;45.76;100748.16;5076179;28;20497;-83
2021/04/04 02:56:00;;;;;;;13.32;2.75;;;;;;;8.85;45.47;100742.84;5076513;28;20497;-83
2021/04/04 02:58:29;;;;;;;12.73;2.40;;;;;;;8.85;45.28;100741.97;5076385;28;20090;-83
2021/04/04 03:01:00;;;;;;;11.50;2.45;;;;;;;8.86;45.47;100743.72;5076553;28;20052;-83
2021/04/04 03:03:31;;;;;;;13.15;2.50;;;;;;;8.85;45.33;100741.97;5075099;28;20048;-83
2021/04/04 03:06:04;;;;;;;13.40;2.35;;;;;;;8.84;45.65;100746.38;5076051;28;20056;-83
2021/04/04 03:08:30;;;;;;;12.18;2.47;;;;;;;8.86;45.09;100743.72;5076487;28;20044;-83
2021/04/04 03:10:59;;;;;;;8.45;2.90;;;;;;;8.84;45.10;100738.50;5076000;28;20056;-83
2021/04/04 03:13:25;;;;;;;11.75;2.30;;;;;;;8.84;45.41;100735.88;5075997;28;20049;-83
2021/04/04 03:15:52;;;;;;;14.52;2.65;;;;;;;8.83;45.33;100735.94;5075978;28;20448;-83
2021/04/04 03:18:19;;;;;;;10.18;2.67;;;;;;;8.82;45.34;100742.09;5076070;28;20056;-83
2021/04/04 03:20:46;;;;;;;14.70;2.63;;;;;;;8.82;45.08;100742.94;5076102;28;20059;-83
2021/04/04 03:23:16;;;;;;;14.43;2.83;;;;;;;8.81;45.78;100738.59;5076161;28;20048;-83
2021/04/04 03:25:44;;;;;;;9.82;2.20;;;;;;;8.81;45.42;100733.34;5075664;28;20075;-83
2021/04/04 03:28:16;;;;;;;8.40;2.28;;;;;;;8.81;45.80;100737.75;5075939;28;20045;-83
2021/04/04 03:30:45;;;;;;;13.48;2.72;;;;;;;8.80;45.55;100730.78;5074806;28;20052;-83
2021/04/04 03:33:17;;;;;;;9.35;2.70;;;;;;;8.79;46.12;100735.16;5074975;28;20455;-83
2021/04/04 03:35:45;;;;;;;13.70;2.45;;;;;;;8.80;45.59;100731.66;5075762;28;20055;-83
2021/04/04 03:38:13;;;;;;;14.55;2.88;;;;;;;8.79;45.44;100731.69;5074382;28;20049;-83
2021/04/04 03:40:39;;;;;;;11.13;2.00;;;;;;;8.79;45.45;100726.44;5075936;28;20048;-83
2021/04/04 03:43:11;;;;;;;10.50;2.03;;;;;;;8.78;46.00;100730.00;5075610;28;20049;-83
2021/04/04 03:45:37;;;;;;;11.25;2.28;;;;;;;8.77;45.76;100728.25;5075548;28;20205;-83
2021/04/04 03:48:05;;;;;;;14.43;2.47;;;;;;;8.75;45.65;100720.44;5075705;28;20044;-83
2021/04/04 03:50:34;;;;;;;12.68;2.05;;;;;;;8.74;46.11;100716.09;5075313;28;20048;-83
2021/04/04 03:53:02;;;;;;;10.43;2.00;;;;;;;8.75;46.02;100719.59;5075335;28;20466;-83
2021/04/04 03:55:29;;;;;;;16.05;2.70;;;;;;;8.73;46.11;100717.88;5110474;22;20518;-84
2021/04/04 03:57:57;;;;;;;13.50;3.13;;;;;;;8.73;46.23;100723.13;5074333;28;20393;-84
2021/04/04 04:00:28;;;;;;;12.10;3.00;;;;;;;8.72;46.50;100715.28;5075367;28;20098;-84
2021/04/04 04:02:54;;;;;;;12.23;2.78;;;;;;;8.72;46.49;100712.66;5074165;28;20077;-84
2021/04/04 04:05:23;;;;;;;10.75;2.60;;;;;;;8.71;46.59;100716.22;5074847;28;20443;-84
2021/04/04 04:07:51;;;;;;;8.80;2.42;;;;;;;8.69;46.79;100715.38;5075260;28;20049;-84
2021/04/04 04:10:19;;;;;;;9.13;2.15;;;;;;;8.69;46.41;100718.00;5075074;28;20378;-84
2021/04/04 04:12:47;;;;;;;10.40;2.70;;;;;;;8.67;46.53;100717.22;5075193;28;20052;-84
2021/04/04 04:15:14;;;;;;;11.98;2.25;;;;;;;8.65;46.75;100706.78;5073455;28;20121;-84
2021/04/04 04:17:44;;;;;;;17.23;2.72;;;;;;;8.64;46.93;100707.69;5075073;28;20044;-84
2021/04/04 04:20:11;;;;;;;11.40;2.58;;;;;;;8.64;47.02;100701.56;5074977;28;20048;-84
2021/04/04 04:22:39;;;;;;;13.30;2.38;;;;;;;8.63;47.22;100699.88;5074987;28;20052;-84
2021/04/04 04:25:07;;;;;;;11.57;2.42;;;;;;;8.63;47.10;100705.13;5074342;28;20060;-84
2021/04/04 04:27:33;;;;;;;11.50;2.60;;;;;;;8.61;47.29;100707.78;5073599;28;20060;-84
2021/04/04 04:30:01;;;;;;;12.32;2.33;;;;;;;8.61;47.36;100713.03;5074737;28;20052;-84
2021/04/04 04:32:32;;;;;;;7.00;2.05;;;;;;;8.59;47.56;100710.47;5073295;28;20052;-84
2021/04/04 04:35:01;;;;;;;9.85;2.53;;;;;;;8.58;47.50;100705.25;5073266;28;20048;-84
2021/04/04 04:37:29;;;;;;;10.85;2.50;;;;;;;8.58;47.07;100707.88;5074678;28;20503;-84
2021/04/04 04:39:58;;;;;;;8.85;2.30;;;;;;;8.56;47.37;100710.53;5073288;28;20170;-84
2021/04/04 04:42:26;;;;;;;15.88;2.88;;;;;;;8.56;47.61;100704.47;5074411;28;20052;-84
2021/04/04 04:44:54;;;;;;;13.75;3.10;;;;;;;8.56;47.58;100699.22;5072731;28;20424;-84
2021/04/04 04:47:20;;;;;;;9.55;2.50;;;;;;;8.55;47.48;100702.72;5074553;28;20052;-84
2021/04/04 04:49:46;;;;;;;11.30;2.45;;;;;;;8.53;47.59;100709.81;5073305;28;20049;-84
2021/04/04 04:52:14;;;;;;;19.35;2.78;;;;;;;8.52;47.86;100708.91;5073285;28;20114;-84
2021/04/04 04:54:42;;;;;;;12.77;2.92;;;;;;;8.50;48.17;100689.75;5072556;28;20049;-84
2021/04/04 04:57:11;;;;;;;12.77;2.58;;;;;;;8.51;48.01;100693.19;5074190;28;20048;-84
2021/04/04 04:59:37;;;;;;;10.95;3.08;;;;;;;8.50;48.24;100702.00;5073187;28;20118;-84
2021/04/04 05:02:09;;;;;;;12.52;2.20;;;;;;;8.49;48.99;100703.78;5074472;28;20056;-84
2021/04/04 05:04:36;;;;;;;10.35;2.55;;;;;;;8.50;47.84;100702.00;5073763;28;20048;-84
2021/04/04 05:07:03;;;;;;;7.13;2.22;;;;;;;8.50;48.24;100699.38;5073243;28;20067;-84
2021/04/04 05:09:32;;;;;;;11.77;2.50;;;;;;;8.47;48.62;100701.19;5072973;28;20052;-84
2021/04/04 05:11:59;;;;;;;9.70;2.35;;;;;;;8.47;48.37;100695.94;5072790;28;20063;-84
2021/04/04 05:14:25;;;;;;;13.65;3.00;;;;;;;8.48;48.34;100696.78;5072380;28;20516;-85
2021/04/04 05:16:55;;;;;;;9.73;2.45;;;;;;;8.45;49.11;100692.50;5072736;28;20063;-84
2021/04/04 05:19:22;;;;;;;15.23;2.80;;;;;;;8.45;48.89;100692.50;5073877;28;20051;-84
2021/04/04 05:21:49;;;;;;;10.10;2.75;;;;;;;8.46;49.01;100693.38;5072787;28;20078;-84
2021/04/04 05:24:16;;;;;;;15.93;2.72;;;;;;;8.45;48.71;100697.75;5073490;28;20063;-84
2021/04/04 05:26:47;;;;;;;10.68;2.80;;;;;;;8.43;49.67;100693.47;5073900;28;20053;-84
2021/04/04 05:29:15;;;;;;;13.13;2.55;;;;;;;8.43;49.01;100699.59;5072885;28;20044;-85
2021/04/04 05:31:48;;;;;;;11.82;3.00;;;;;;;8.40;49.86;100699.66;5072596;28;20098;-84
2021/04/04 05:34:17;;;;;;;13.13;2.88;;;;;;;8.41;49.36;100693.50;5073323;28;20048;-84
2021/04/04 05:36:54;;;;;;;13.20;3.20;;;;;;;8.38;49.77;100691.00;5073591;28;20049;-84
2021/04/04 05:39:22;;;;;;;15.63;3.20;;;;;;;8.37;49.53;100684.03;5072538;28;20044;-84
2021/04/04 05:42:12;;;;;;;9.65;2.70;;;;;;;8.33;50.40;100687.66;5073710;28;20053;-84
2021/04/04 05:44:44;;;;;;;14.80;3.15;;;;;;;8.35;49.39;100683.22;5064557;28;20106;-84
2021/04/04 05:47:33;;;;;;;11.52;2.67;;;;;;;8.29;50.56;100679.03;5072385;28;20106;-84
2021/04/04 05:50:14;;;;;;;12.85;3.05;;;;;;;8.28;50.45;100677.34;5073859;28;20102;-84
2021/04/04 05:53:04;;;;;;;10.75;2.63;;;;;;;8.26;50.42;100676.50;5072564;28;20076;-84
2021/04/04 05:55:52;;;;;;;7.22;2.38;;;;;;;8.29;49.75;100672.91;5072989;28;20076;-84
2021/04/04 05:58:36;;;;;;;11.43;2.53;;;;;;;8.26;50.93;100679.13;5072350;28;20075;-84
2021/04/04 06:01:21;;;;;;;12.73;2.45;;;;;;;8.28;51.36;100679.94;5072352;28;20080;-84
2021/04/04 06:03:47;;;;;;;8.35;2.63;;;;;;;8.31;49.78;100681.63;5072935;28;20086;-84
2021/04/04 06:06:44;;;;;;;10.90;2.33;;;;;;;8.28;51.29;100684.31;5073410;28;20182;-84
2021/04/04 06:09:32;;;;;;;13.55;2.88;;;;;;;8.31;51.15;100684.25;5073425;28;20052;-84
2021/04/04 06:12:35;;;;;;;17.75;2.90;;;;;;;8.31;51.08;100684.25;5072423;28;20051;-84
2021/04/04 06:15:25;;;;;;;6.93;2.20;;;;;;;8.34;51.51;100685.00;5073195;28;20052;-84
2021/04/04 06:18:12;;;;;;;13.02;2.30;;;;;;;8.38;51.69;100675.28;5073444;28;20049;-84
2021/04/04 06:20:51;;;;;;;16.42;3.42;;;;;;;8.40;51.73;100677.81;5077181;28;20398;-84
2021/04/04 06:23:29;;;;;;;10.13;2.70;;;;;;;8.41;52.13;100674.31;5076512;28;20447;-84
2021/04/04 06:26:05;;;;;;;13.38;3.63;;;;;;;8.43;51.56;100675.09;5075638;28;20446;-84
2021/04/04 06:28:54;;;;;;;16.08;3.55;;;;;;;8.39;52.05;100671.72;5077099;28;20481;-84
2021/04/04 06:31:36;;;;;;;12.30;2.58;;;;;;;8.41;51.89;100669.91;5075618;28;20059;-84
2021/04/04 06:34:08;;;;;;;9.93;2.88;;;;;;;8.43;52.13;100673.34;5076684;28;20053;-84
2021/04/04 06:36:58;;;;;;;10.70;2.80;;;;;;;8.46;51.98;100669.75;5076948;28;20122;-84
2021/04/04 06:39:58;;;;;;;12.52;2.72;;;;;;;8.43;52.66;100668.09;5055417;28;20056;-84
2021/04/04 06:42:35;;;;;;;13.10;2.75;;;;;;;8.46;52.55;100670.59;5076830;28;20052;-84
2021/04/04 06:45:25;;;;;;;15.48;2.63;;;;;;;8.45;52.57;100668.88;5076373;28;20048;-84
2021/04/04 06:48:18;;;;;;;11.70;2.47;;;;;;;8.45;52.82;100668.88;5076592;28;20055;-84
2021/04/04 06:50:50;;;;;;;6.88;2.97;;;;;;;8.50;52.02;100673.13;5076621;28;20049;-84
2021/04/04 06:53:50;;;;;;;11.88;3.15;;;;;;;8.46;52.92;100670.59;5075432;28;20413;-84
2021/04/04 06:56:32;;;;;;;11.30;3.00;;;;;;;8.48;53.07;100676.66;5075215;28;20508;-84
2021/04/04 06:59:15;;;;;;;10.05;3.22;;;;;;;8.50;52.84;100679.25;5075347;28;20044;-84
2021/04/04 07:01:58;;;;;;;11.40;3.13;;;;;;;8.50;52.95;100687.13;5076450;28;20106;-84
2021/04/04 07:04:49;;;;;;;4.78;1.92;;;;;;;8.50;53.27;100678.38;5076088;28;20393;-84
2021/04/04 07:07:27;;;;;;;12.15;3.38;;;;;;;8.48;53.47;100686.28;5075350;28;20048;-84
2021/04/04 07:10:10;;;;;;;9.23;2.80;;;;;;;8.48;53.32;100684.53;5075070;28;20048;-84
2021/04/04 07:13:04;;;;;;;7.63;2.60;;;;;;;8.45;53.37;100682.00;5076349;28;20067;-84
2021/04/04 07:15:44;;;;;;;9.43;3.05;;;;;;;8.48;53.73;100683.66;5074478;28;20408;-84
2021/04/04 07:18:29;;;;;;;7.95;2.88;;;;;;;8.47;54.01;100690.69;5075295;28;20099;-84
2021/04/04 07:21:20;;;;;;;7.43;2.75;;;;;;;8.48;54.05;100687.16;5074948;28;20056;-84
2021/04/04 07:24:28;;;;;;;11.75;3.45;;;;;;;8.47;53.61;100685.44;5074576;28;20056;-84
2021/04/04 07:27:06;;;;;;;11.98;3.25;;;;;;;8.48;53.95;100676.66;5075966;28;20044;-84
2021/04/04 07:29:36;;;;;;;8.93;2.88;;;;;;;8.53;53.55;100675.69;5075348;28;20049;-84
2021/04/04 07:32:44;;;;;;;8.73;3.80;;;;;;;8.53;54.00;100678.31;5075668;28;20049;-84
2021/04/04 07:35:15;;;;;;;8.77;3.10;;;;;;;8.57;53.35;100682.56;5033180;28;20457;-84
2021/04/04 07:38:00;;;;;;;7.65;3.40;;;;;;;8.59;54.20;100685.97;5066819;28;20075;-84
2021/04/04 07:40:44;;;;;;;11.18;3.45;;;;;;;8.63;54.38;100684.94;5075746;28;20098;-84
2021/04/04 07:43:17;;;;;;;8.45;3.70;;;;;;;8.69;53.67;100676.88;5075856;28;20048;-84
2021/04/04 07:46:02;;;;;;;;;;;;;;;8.73;53.00;100680.25;5076162;28;20428;-84
2021/04/04 07:48:46;;;;;;;10.32;2.78;;;;;;;8.78;53.17;100677.47;5074223;28;19974;-84
2021/04/04 07:51:17;;;;;;;10.40;3.13;;;;;;;8.81;52.96;100669.47;5075751;28;20114;-84
2021/04/04 07:54:04;;;;;;;9.93;2.90;;;;;;;8.79;53.89;100676.56;5074000;28;20063;-84
2021/04/04 07:56:52;;;;;;;9.98;3.15;;;;;;;8.82;53.97;100672.06;5074226;28;20075;-84
2021/04/04 07:59:26;;;;;;;13.30;3.53;;;;;;;8.89;53.77;100677.94;5074244;28;20044;-84
2021/04/04 08:02:00;;;;;;;7.72;3.03;;;;;;;8.93;53.47;100671.69;5075215;28;20102;-84
2021/04/04 08:04:52;;;;;;;6.78;2.92;;;;;;;8.97;53.93;100672.44;5075274;28;20052;-84
2021/04/04 08:07:41;;;;;;;9.20;2.30;;;;;;;9.03;53.58;100685.34;5075153;28;20048;-84
2021/04/04 08:10:22;;;;;;;7.97;2.45;;;;;;;9.08;53.36;100678.16;5073934;28;20110;-84
2021/04/04 08:12:56;;;;;;;8.48;2.63;;;;;;;9.13;53.26;100670.13;5073999;28;20455;-84
2021/04/04 08:15:26;;;;;;;9.55;2.50;;;;;;;9.15;52.75;100672.69;5073400;28;20558;-84
2021/04/04 08:17:52;;;;;;;10.65;2.22;;;;;;;9.13;52.43;100672.75;5075119;28;20053;-84
2021/04/04 08:20:45;;;;;;;6.10;1.75;;;;;;;9.06;53.50;100677.38;5073824;28;20055;-84
2021/04/04 08:23:23;;;;;;;7.65;1.92;;;;;;;9.04;53.34;100675.72;5074572;28;20493;-84
2021/04/04 08:26:15;;;;;;;7.30;2.22;;;;;;;9.00;53.88;100674.94;5073275;28;20048;-84
2021/04/04 08:28:56;;;;;;;9.27;2.88;;;;;;;8.99;54.04;100676.72;5073681;28;20048;-84
2021/04/04 08:31:43;;;;;;;13.30;2.35;;;;;;;8.98;53.74;100676.78;5074587;28;20060;-84
2021/04/04 08:34:38;;;;;;;8.63;2.30;;;;;;;8.97;53.83;100673.28;5074383;28;20114;-84
2021/04/04 08:37:18;;;;;;;7.13;2.30;;;;;;;9.01;53.40;100678.44;5056860;28;20048;-84
2021/04/04 08:39:54;;;;;;;8.65;2.35;;;;;;;8.97;54.16;100672.44;5073307;28;20390;-84
2021/04/04 08:42:21;;;;;;;6.95;2.35;;;;;;;9.00;52.98;100680.19;5073211;28;20045;-84
2021/04/04 08:45:07;;;;;;;5.78;2.20;;;;;;;8.97;54.36;100681.16;5073838;28;20455;-84
2021/04/04 08:47:36;;;;;;;9.25;2.28;;;;;;;9.02;53.50;100674.88;5074751;28;20052;-84
2021/04/04 08:50:17;;;;;;;7.03;2.08;;;;;;;9.04;54.07;100673.09;5073514;28;20041;-84
2021/04/04 08:52:52;;;;;;;8.07;2.60;;;;;;;9.07;53.96;100671.19;5074171;28;20053;-85
2021/04/04 08:55:27;;;;;;;5.00;2.10;;;;;;;9.10;54.05;100670.22;5073853;28;20048;-84
2021/04/04 08:57:55;;;;;;;8.25;2.22;;;;;;;9.15;52.93;100676.16;5074527;28;20052;-84
2021/04/04 09:00:26;;;;;;;9.95;2.53;;;;;;;9.16;53.45;100667.34;5074117;28;20072;-84
2021/04/04 09:02:56;;;;;;;5.28;2.20;;;;;;;9.19;53.04;100677.75;5073005;28;20390;-84
2021/04/04 09:05:25;;;;;;;5.53;2.08;;;;;;;9.21;53.02;100664.56;5072610;28;20052;-84
2021/04/04 09:07:55;;;;;;;6.30;2.65;;;;;;;9.22;53.38;100668.91;5074160;28;20052;-84
2021/04/04 09:10:23;;;;;;;6.13;2.88;;;;;;;9.27;53.15;100666.13;5072755;28;20040;-84
2021/04/04 09:12:50;;;;;;;7.68;2.20;;;;;;;9.29;53.82;100666.91;5073875;28;20048;-84
2021/04/04 09:15:21;;;;;;;8.98;2.33;;;;;;;9.34;53.05;100667.59;5072359;28;20102;-84
2021/04/04 09:18:02;;;;;;;6.65;2.17;;;;;;;9.33;53.61;100658.88;5074343;28;20053;-84
2021/04/04 09:20:33;;;;;;;6.60;2.38;;;;;;;9.37;53.44;100660.47;5073494;28;20044;-84
2021/04/04 09:23:04;;;;;;;7.35;2.22;;;;;;;9.39;53.19;100656.00;5072693;28;20052;-84
2021/04/04 09:25:32;;;;;;;6.72;2.40;;;;;;;9.43;52.71;100664.66;5073604;28;20094;-84
2021/04/04 09:27:59;;;;;;;8.82;2.60;;;;;;;9.45;52.37;100662.81;5072576;28;20106;-84
2021/04/04 09:30:34;;;;;;;7.75;2.63;;;;;;;9.45;52.88;100665.44;5073789;28;20048;-84
2021/04/04 09:33:08;;;;;;;8.88;2.38;;;;;;;9.44;52.94;100658.47;5072691;28;20048;-84
2021/04/04 09:35:35;;;;;;;5.85;2.47;;;;;;;9.47;52.56;100652.25;5073493;28;20048;-84
2021/04/04 09:38:08;;;;;;;5.32;2.40;;;;;;;9.45;52.93;100657.56;5072574;28;20059;-84
2021/04/04 09:40:34;;;;;;;5.57;1.75;;;;;;;9.47;52.14;100661.00;5074151;28;20045;-84
2021/04/04 09:43:16;;;;;;;5.22;2.13;;;;;;;9.41;52.96;100655.94;5072334;28;20053;-84
2021/04/04 09:45:42;;;;;;;4.85;2.17;;;;;;;9.42;52.44;100660.28;5072369;28;20052;-84
2021/04/04 09:48:23;;;;;;;7.60;2.33;;;;;;;9.37;52.94;100651.72;5073895;28;20060;-83
2021/04/04 09:51:03;;;;;;;6.13;2.28;;;;;;;9.38;52.71;100656.06;5072330;28;20048;-83
2021/04/04 09:53:37;;;;;;;7.22;2.22;;;;;;;9.34;53.59;100651.84;5073210;28;20049;-83
2021/04/04 09:56:09;;;;;;;6.10;2.10;;;;;;;9.37;53.10;100655.22;5108727;23;20049;-84
2021/04/04 09:58:41;;;;;;;6.07;2.38;;;;;;;9.39;53.55;100650.75;5072539;28;20405;-83
2021/04/04 10:01:19;;;;;;;4.15;2.15;;;;;;;9.41;54.05;100649.84;5073688;28;20048;-83
2021/04/04 10:04:04;;;;;;;5.70;1.90;;;;;;;9.45;53.68;100651.44;5072568;28;20048;-83
2021/04/04 10:06:32;;;;;;;6.25;2.30;;;;;;;9.55;53.06;100644.94;5052270;28;20045;-83
2021/04/04 10:09:05;;;;;;;6.78;2.50;;;;;;;9.58;53.47;100642.19;5053792;28;20048;-83
2021/04/04 10:11:32;;;;;;;8.88;2.78;;;;;;;9.66;52.52;100652.41;5052133;28;20510;-83
2021/04/04 10:14:24;;;;;;;8.55;2.80;;;;;;;9.65;52.61;100640.19;5052932;28;20519;-83
2021/04/04 10:17:08;;;;;;;6.32;2.53;;;;;;;9.67;52.14;100633.06;5049279;28;20493;-83
2021/04/04 10:19:51;;;;;;;;;;;;;;;9.70;52.25;100629.47;5053250;28;20041;-83
2021/04/04 10:22:17;;;;;;;6.60;2.40;;;;;;;9.75;51.27;100633.63;5053532;28;19928;-84
2021/04/04 10:24:43;;;;;;;8.98;3.05;;;;;;;9.71;51.63;100639.91;5051409;28;20489;-83
2021/04/04 10:27:15;;;;;;;8.43;2.67;;;;;;;9.68;52.36;100637.41;5053211;28;20103;-83
2021/04/04 10:29:47;;;;;;;7.10;3.00;;;;;;;9.71;52.10;100625.91;5052952;28;20477;-83
2021/04/04 10:32:14;;;;;;;9.48;2.47;;;;;;;9.74;51.96;100621.41;5053073;28;20053;-83
2021/04/04 10:34:45;;;;;;;7.53;2.95;;;;;;;9.75;52.04;100623.09;5052939;28;20044;-83
2021/04/04 10:37:12;;;;;;;6.93;2.67;;;;;;;9.81;51.60;100622.03;5053128;28;20052;-83
2021/04/04 10:39:39;;;;;;;9.93;2.22;;;;;;;9.84;51.36;100623.66;5051545;28;20095;-83
2021/04/04 10:42:15;;;;;;;5.90;3.17;;;;;;;9.81;51.41;100615.88;5052067;28;20083;-83
2021/04/04 10:44:42;;;;;;;8.68;2.92;;;;;;;9.83;51.16;100614.06;5052621;28;20049;-83
2021/04/04 10:47:22;;;;;;;6.65;2.60;;;;;;;9.77;51.71;100609.91;5053008;28;20053;-83
2021/04/04 10:49:49;;;;;;;9.13;2.83;;;;;;;9.78;50.90;100604.59;5052657;28;20045;-83
2021/04/04 10:52:17;;;;;;;6.82;3.05;;;;;;;9.74;51.33;100604.75;5052789;28;20052;-83
2021/04/04 10:54:43;;;;;;;5.32;2.70;;;;;;;9.72;51.24;100602.19;5051334;28;20420;-83
2021/04/04 10:57:10;;;;;;;6.45;2.78;;;;;;;9.71;51.45;100600.47;5051717;28;20073;-83
2021/04/04 10:59:44;;;;;;;7.68;3.03;;;;;;;9.71;51.71;100599.63;5052905;28;20056;-84
2021/04/04 11:02:11;;;;;;;13.68;3.45;;;;;;;9.75;51.61;100602.06;5053069;28;20556;-83
2021/04/04 11:04:38;;;;;;;7.20;3.15;;;;;;;9.77;51.17;100594.97;5051167;28;20076;-83
2021/04/04 11:07:04;;;;;;;6.95;3.20;;;;;;;9.81;51.48;100592.22;5056407;28;20053;-83
2021/04/04 11:09:30;;;;;;;11.80;3.80;;;;;;;9.85;51.65;100589.41;5056234;28;20052;-83
2021/04/04 11:12:00;;;;;;;10.18;3.10;;;;;;;9.88;51.06;100585.81;5056890;28;20083;-84
2021/04/04 11:14:30;;;;;;;7.57;3.90;;;;;;;9.91;51.12;100588.31;5055848;28;20045;-83
2021/04/04 11:17:01;;;;;;;8.65;3.78;;;;;;;9.91;50.72;100588.31;5056480;28;20076;-83
2021/04/04 11:19:29;;;;;;;9.02;3.20;;;;;;;9.93;50.75;100589.09;5054846;28;20052;-83
2021/04/04 11:21:58;;;;;;;9.68;3.45;;;;;;;9.93;50.59;100578.59;5056170;28;20056;-84
2021/04/04 11:24:33;;;;;;;12.18;3.47;;;;;;;9.95;50.43;100579.38;5055738;28;20103;-83
2021/04/04 11:27:02;;;;;;;11.88;3.88;;;;;;;9.96;50.65;100578.47;5056020;28;20056;-84
2021/04/04 11:29:29;;;;;;;9.55;3.90;;;;;;;9.96;50.51;100573.19;5054609;28;20055;-84
2021/04/04 11:32:40;;;;;;;10.35;3.55;;;;;;;9.95;51.14;100571.50;5054738;28;20053;-84
2021/04/04 11:39:15;;;;;;;13.55;3.65;;;;;;;10.07;50.39;100553.47;5055652;28;20410;-84
2021/04/04 11:42:37;;;;;;;8.77;3.75;;;;;;;10.06;50.43;100554.41;5054597;28;20055;-84
2021/04/04 11:46:08;;;;;;;;;;;;;;;;;;;;;
2021/04/04 11:49:53;;;;;;;8.82;4.00;;;;;;;10.07;50.27;100532.44;5055503;28;20534;-83
2021/04/04 11:52:23;;;;;;;10.43;4.10;;;;;;;10.12;50.08;100535.72;5045641;28;20052;-83
2021/04/04 11:54:51;;;;;;;11.98;3.95;;;;;;;10.09;50.07;100534.06;5055359;28;20081;-84
2021/04/04 11:57:24;;;;;;;8.63;3.95;;;;;;;10.07;50.10;100535.06;5055580;28;20066;-84
2021/04/04 11:59:51;;;;;;;11.67;4.10;;;;;;;10.10;50.22;100529.69;5055426;28;20041;-83
2021/04/04 12:02:19;;;;;;;14.13;3.90;;;;;;;10.10;50.06;100533.16;5055467;28;20076;-84
2021/04/04 12:05:01;;;;;;;12.40;4.03;;;;;;;10.08;50.17;100528.88;5055154;28;20052;-83